Schedule Details


Flight Number: CTN631
Departure: Pula (LDPL) at 06:00
Arrival: Zemunik (LDZD) at 06:35
Route: LOS N606 EBITA

Weather Information
LDPL 072330Z VRB02KT CAVOK 22/16 Q1017
LDZD 072330Z VRB03KT CAVOK 22/16 Q1016
Schedule Frequency

Route Map